sensor_id;sensor_type;location;lat;lon;timestamp;pressure;altitude;pressure_sealevel;temperature;humidity
2339;BME280;1180;51.438;6.978;2023-02-15T00:01:22;101574.94;;;9.17;73.87
2339;BME280;1180;51.438;6.978;2023-02-15T00:03:48;101571.28;;;9.24;73.90
2339;BME280;1180;51.438;6.978;2023-02-15T00:06:14;101566.13;;;9.25;73.88
2339;BME280;1180;51.438;6.978;2023-02-15T00:08:40;101566.94;;;9.26;74.09
2339;BME280;1180;51.438;6.978;2023-02-15T00:13:30;101568.53;;;9.03;74.31
2339;BME280;1180;51.438;6.978;2023-02-15T00:16:03;101565.03;;;9.06;74.07
2339;BME280;1180;51.438;6.978;2023-02-15T00:18:29;101562.97;;;9.17;73.60
2339;BME280;1180;51.438;6.978;2023-02-15T00:20:55;101564.50;;;8.96;73.73
2339;BME280;1180;51.438;6.978;2023-02-15T00:23:20;101566.25;;;8.94;74.06
2339;BME280;1180;51.438;6.978;2023-02-15T00:25:46;101559.50;;;8.91;73.88
2339;BME280;1180;51.438;6.978;2023-02-15T00:28:11;101557.97;;;8.86;74.41
2339;BME280;1180;51.438;6.978;2023-02-15T00:30:36;101556.69;;;8.72;74.99
2339;BME280;1180;51.438;6.978;2023-02-15T00:33:02;101559.34;;;8.69;75.48
2339;BME280;1180;51.438;6.978;2023-02-15T00:35:27;101547.13;;;8.77;75.51
2339;BME280;1180;51.438;6.978;2023-02-15T00:37:52;101545.84;;;8.64;76.26
2339;BME280;1180;51.438;6.978;2023-02-15T00:40:18;101553.28;;;8.72;76.31
2339;BME280;1180;51.438;6.978;2023-02-15T00:42:43;101553.25;;;8.73;76.54
2339;BME280;1180;51.438;6.978;2023-02-15T00:45:09;101546.34;;;8.75;76.51
2339;BME280;1180;51.438;6.978;2023-02-15T00:47:34;101546.03;;;8.86;76.34
2339;BME280;1180;51.438;6.978;2023-02-15T00:49:59;101549.06;;;8.98;75.58
2339;BME280;1180;51.438;6.978;2023-02-15T00:52:25;101552.91;;;8.84;75.78
2339;BME280;1180;51.438;6.978;2023-02-15T00:54:50;101547.69;;;8.87;75.80
2339;BME280;1180;51.438;6.978;2023-02-15T00:57:15;101548.78;;;8.80;76.14
2339;BME280;1180;51.438;6.978;2023-02-15T00:59:41;101546.84;;;8.87;75.94
2339;BME280;1180;51.438;6.978;2023-02-15T01:02:06;101546.72;;;8.91;75.30
2339;BME280;1180;51.438;6.978;2023-02-15T01:04:31;101547.38;;;8.98;74.98
2339;BME280;1180;51.438;6.978;2023-02-15T01:06:57;101546.75;;;8.90;74.98
2339;BME280;1180;51.438;6.978;2023-02-15T01:09:22;101546.94;;;8.84;74.90
2339;BME280;1180;51.438;6.978;2023-02-15T01:11:47;101549.78;;;8.74;75.23
2339;BME280;1180;51.438;6.978;2023-02-15T01:14:13;101548.78;;;8.80;75.21
2339;BME280;1180;51.438;6.978;2023-02-15T01:16:39;101540.22;;;8.81;74.71
2339;BME280;1180;51.438;6.978;2023-02-15T01:19:05;101539.22;;;8.85;74.28
2339;BME280;1180;51.438;6.978;2023-02-15T01:21:31;101536.06;;;8.77;74.45
2339;BME280;1180;51.438;6.978;2023-02-15T01:23:59;101532.56;;;8.79;74.58
2339;BME280;1180;51.438;6.978;2023-02-15T01:26:25;101534.25;;;8.80;74.03
2339;BME280;1180;51.438;6.978;2023-02-15T01:28:50;101529.00;;;8.85;73.95
2339;BME280;1180;51.438;6.978;2023-02-15T01:31:20;101526.56;;;8.80;73.92
2339;BME280;1180;51.438;6.978;2023-02-15T01:33:46;101522.22;;;8.82;73.95
2339;BME280;1180;51.438;6.978;2023-02-15T01:36:12;101526.19;;;8.64;74.42
2339;BME280;1180;51.438;6.978;2023-02-15T01:38:37;101519.38;;;8.65;74.89
2339;BME280;1180;51.438;6.978;2023-02-15T01:41:05;101524.53;;;8.63;74.43
2339;BME280;1180;51.438;6.978;2023-02-15T01:43:49;101524.63;;;8.60;74.57
2339;BME280;1180;51.438;6.978;2023-02-15T01:46:16;101523.94;;;8.55;74.55
2339;BME280;1180;51.438;6.978;2023-02-15T01:48:47;101526.53;;;8.53;74.50
2339;BME280;1180;51.438;6.978;2023-02-15T01:51:17;101521.63;;;8.46;74.87
2339;BME280;1180;51.438;6.978;2023-02-15T01:53:49;101516.41;;;8.49;74.96
2339;BME280;1180;51.438;6.978;2023-02-15T01:56:24;101518.13;;;8.50;74.92
2339;BME280;1180;51.438;6.978;2023-02-15T01:58:53;101511.22;;;8.52;75.08
2339;BME280;1180;51.438;6.978;2023-02-15T02:01:20;101506.16;;;8.50;75.08
2339;BME280;1180;51.438;6.978;2023-02-15T02:06:30;101510.66;;;8.41;75.40
2339;BME280;1180;51.438;6.978;2023-02-15T02:08:57;101507.38;;;8.37;75.39
2339;BME280;1180;51.438;6.978;2023-02-15T02:11:23;101504.63;;;8.43;75.34
2339;BME280;1180;51.438;6.978;2023-02-15T02:13:50;101498.13;;;8.33;75.73
2339;BME280;1180;51.438;6.978;2023-02-15T02:17:11;101498.72;;;8.41;75.99
2339;BME280;1180;51.438;6.978;2023-02-15T02:19:40;101493.66;;;8.39;76.05
2339;BME280;1180;51.438;6.978;2023-02-15T02:25:20;101485.94;;;8.41;75.39
2339;BME280;1180;51.438;6.978;2023-02-15T02:35:47;101477.75;;;8.30;75.42
2339;BME280;1180;51.438;6.978;2023-02-15T02:46:20;101455.69;;;8.26;76.01
2339;BME280;1180;51.438;6.978;2023-02-15T02:48:46;101445.56;;;8.22;75.63
2339;BME280;1180;51.438;6.978;2023-02-15T02:51:13;101442.03;;;8.27;75.64
2339;BME280;1180;51.438;6.978;2023-02-15T02:53:39;101445.00;;;8.41;74.68
2339;BME280;1180;51.438;6.978;2023-02-15T02:56:20;101449.38;;;8.37;74.61
2339;BME280;1180;51.438;6.978;2023-02-15T02:58:58;101447.94;;;8.29;74.94
2339;BME280;1180;51.438;6.978;2023-02-15T03:01:39;101446.25;;;8.28;75.00
2339;BME280;1180;51.438;6.978;2023-02-15T03:04:10;101435.28;;;8.24;74.93
2339;BME280;1180;51.438;6.978;2023-02-15T03:09:14;101434.13;;;8.06;75.65
2339;BME280;1180;51.438;6.978;2023-02-15T03:11:47;101434.06;;;8.07;75.82
2339;BME280;1180;51.438;6.978;2023-02-15T03:14:14;101435.63;;;8.12;75.95
2339;BME280;1180;51.438;6.978;2023-02-15T03:16:43;101438.19;;;8.12;75.75
2339;BME280;1180;51.438;6.978;2023-02-15T03:19:22;101430.41;;;8.16;75.25
2339;BME280;1180;51.438;6.978;2023-02-15T03:21:51;101427.75;;;8.19;75.35
2339;BME280;1180;51.438;6.978;2023-02-15T03:24:51;101424.41;;;8.17;75.25
2339;BME280;1180;51.438;6.978;2023-02-15T03:27:25;101428.03;;;8.10;75.73
2339;BME280;1180;51.438;6.978;2023-02-15T03:29:55;101428.94;;;8.07;75.68
2339;BME280;1180;51.438;6.978;2023-02-15T03:32:23;101418.88;;;8.03;75.95
2339;BME280;1180;51.438;6.978;2023-02-15T03:34:51;101423.72;;;8.12;75.93
2339;BME280;1180;51.438;6.978;2023-02-15T03:40:16;101429.13;;;8.01;76.65
2339;BME280;1180;51.438;6.978;2023-02-15T03:43:12;101430.91;;;7.99;75.91
2339;BME280;1180;51.438;6.978;2023-02-15T03:45:40;101428.31;;;8.01;76.28
2339;BME280;1180;51.438;6.978;2023-02-15T03:48:21;101434.22;;;8.03;75.93
2339;BME280;1180;51.438;6.978;2023-02-15T03:50:50;101428.56;;;7.91;76.10
2339;BME280;1180;51.438;6.978;2023-02-15T03:53:35;101429.44;;;7.90;75.91
2339;BME280;1180;51.438;6.978;2023-02-15T03:56:02;101422.63;;;7.91;76.28
2339;BME280;1180;51.438;6.978;2023-02-15T03:58:27;101425.22;;;7.89;76.12
2339;BME280;1180;51.438;6.978;2023-02-15T04:01:32;101423.41;;;7.93;75.84
2339;BME280;1180;51.438;6.978;2023-02-15T04:04:20;101436.41;;;7.85;76.51
2339;BME280;1180;51.438;6.978;2023-02-15T04:06:47;101426.84;;;7.92;76.68
2339;BME280;1180;51.438;6.978;2023-02-15T04:09:13;101422.41;;;7.99;76.55
2339;BME280;1180;51.438;6.978;2023-02-15T04:11:57;101425.78;;;7.99;76.29
2339;BME280;1180;51.438;6.978;2023-02-15T04:14:22;101422.34;;;8.00;76.20
2339;BME280;1180;51.438;6.978;2023-02-15T04:17:08;101418.19;;;7.98;76.10
2339;BME280;1180;51.438;6.978;2023-02-15T04:19:34;101414.97;;;7.91;76.38
2339;BME280;1180;51.438;6.978;2023-02-15T04:22:18;101418.69;;;7.79;76.74
2339;BME280;1180;51.438;6.978;2023-02-15T04:25:02;101418.69;;;7.79;77.00
2339;BME280;1180;51.438;6.978;2023-02-15T04:27:46;101414.69;;;7.70;77.07
2339;BME280;1180;51.438;6.978;2023-02-15T04:30:13;101418.00;;;7.74;77.40
2339;BME280;1180;51.438;6.978;2023-02-15T04:32:39;101415.19;;;7.83;76.81
2339;BME280;1180;51.438;6.978;2023-02-15T04:35:05;101415.94;;;7.87;76.37
2339;BME280;1180;51.438;6.978;2023-02-15T04:37:32;101416.81;;;7.86;76.63
2339;BME280;1180;51.438;6.978;2023-02-15T04:39:57;101413.41;;;7.85;76.44
2339;BME280;1180;51.438;6.978;2023-02-15T04:42:26;101413.50;;;7.82;76.53
2339;BME280;1180;51.438;6.978;2023-02-15T04:44:52;101417.91;;;7.77;76.52
2339;BME280;1180;51.438;6.978;2023-02-15T04:47:18;101413.00;;;7.69;76.90
2339;BME280;1180;51.438;6.978;2023-02-15T04:49:43;101412.19;;;7.69;76.94
2339;BME280;1180;51.438;6.978;2023-02-15T04:52:08;101401.97;;;7.69;77.53
2339;BME280;1180;51.438;6.978;2023-02-15T04:54:34;101405.81;;;7.84;76.56
2339;BME280;1180;51.438;6.978;2023-02-15T04:56:59;101398.53;;;7.70;77.03
2339;BME280;1180;51.438;6.978;2023-02-15T04:59:25;101407.16;;;7.65;77.45
2339;BME280;1180;51.438;6.978;2023-02-15T05:01:50;101401.91;;;7.70;77.37
2339;BME280;1180;51.438;6.978;2023-02-15T05:04:15;101403.56;;;7.73;77.02
2339;BME280;1180;51.438;6.978;2023-02-15T05:06:41;101401.69;;;7.78;76.86
2339;BME280;1180;51.438;6.978;2023-02-15T05:09:06;101403.69;;;7.68;76.89
2339;BME280;1180;51.438;6.978;2023-02-15T05:11:31;101410.56;;;7.66;77.06
2339;BME280;1180;51.438;6.978;2023-02-15T05:13:57;101398.72;;;7.63;77.34
2339;BME280;1180;51.438;6.978;2023-02-15T05:16:22;101396.00;;;7.68;77.12
2339;BME280;1180;51.438;6.978;2023-02-15T05:18:48;101388.06;;;7.77;76.65
2339;BME280;1180;51.438;6.978;2023-02-15T05:21:13;101387.56;;;7.66;76.71
2339;BME280;1180;51.438;6.978;2023-02-15T05:23:41;101386.97;;;7.56;77.42
2339;BME280;1180;51.438;6.978;2023-02-15T05:26:10;101380.94;;;7.59;77.32
2339;BME280;1180;51.438;6.978;2023-02-15T05:28:54;101379.19;;;7.61;77.48
2339;BME280;1180;51.438;6.978;2023-02-15T05:31:20;101380.75;;;7.66;76.87
2339;BME280;1180;51.438;6.978;2023-02-15T05:33:45;101373.06;;;7.66;76.63
2339;BME280;1180;51.438;6.978;2023-02-15T05:36:11;101378.34;;;7.60;76.78
2339;BME280;1180;51.438;6.978;2023-02-15T05:38:37;101377.72;;;7.52;77.34
2339;BME280;1180;51.438;6.978;2023-02-15T05:41:03;101367.31;;;7.58;77.50
2339;BME280;1180;51.438;6.978;2023-02-15T05:43:29;101374.06;;;7.62;76.85
2339;BME280;1180;51.438;6.978;2023-02-15T05:45:55;101372.41;;;7.60;76.89
2339;BME280;1180;51.438;6.978;2023-02-15T05:48:22;101373.50;;;7.51;77.30
2339;BME280;1180;51.438;6.978;2023-02-15T05:53:30;101372.41;;;7.60;76.72
2339;BME280;1180;51.438;6.978;2023-02-15T05:55:57;101363.88;;;7.59;76.99
2339;BME280;1180;51.438;6.978;2023-02-15T05:58:26;101366.28;;;7.65;76.91
2339;BME280;1180;51.438;6.978;2023-02-15T06:00:51;101369.09;;;7.56;76.86
2339;BME280;1180;51.438;6.978;2023-02-15T06:03:17;101362.38;;;7.54;77.27
2339;BME280;1180;51.438;6.978;2023-02-15T06:05:42;101359.75;;;7.55;76.74
2339;BME280;1180;51.438;6.978;2023-02-15T06:08:07;101365.22;;;7.43;77.40
2339;BME280;1180;51.438;6.978;2023-02-15T06:10:32;101360.03;;;7.46;77.41
2339;BME280;1180;51.438;6.978;2023-02-15T06:12:58;101363.44;;;7.46;77.52
2339;BME280;1180;51.438;6.978;2023-02-15T06:15:23;101370.13;;;7.50;77.14
2339;BME280;1180;51.438;6.978;2023-02-15T06:17:48;101367.56;;;7.50;77.07
2339;BME280;1180;51.438;6.978;2023-02-15T06:20:14;101371.72;;;7.53;76.50
2339;BME280;1180;51.438;6.978;2023-02-15T06:22:39;101366.03;;;7.43;76.76
2339;BME280;1180;51.438;6.978;2023-02-15T06:25:05;101365.31;;;7.40;77.37
2339;BME280;1180;51.438;6.978;2023-02-15T06:27:30;101369.44;;;7.44;77.39
2339;BME280;1180;51.438;6.978;2023-02-15T06:29:56;101373.69;;;7.43;77.02
2339;BME280;1180;51.438;6.978;2023-02-15T06:32:21;101374.34;;;7.51;77.09
2339;BME280;1180;51.438;6.978;2023-02-15T06:34:46;101372.81;;;7.44;76.83
2339;BME280;1180;51.438;6.978;2023-02-15T06:37:12;101376.13;;;7.49;76.60
2339;BME280;1180;51.438;6.978;2023-02-15T06:39:37;101377.72;;;7.52;76.98
2339;BME280;1180;51.438;6.978;2023-02-15T06:42:02;101377.72;;;7.52;76.92
2339;BME280;1180;51.438;6.978;2023-02-15T06:44:28;101380.16;;;7.57;76.79
2339;BME280;1180;51.438;6.978;2023-02-15T06:46:53;101371.13;;;7.45;77.16
2339;BME280;1180;51.438;6.978;2023-02-15T06:49:18;101371.16;;;7.43;77.96
2339;BME280;1180;51.438;6.978;2023-02-15T06:51:44;101377.09;;;7.44;77.61
2339;BME280;1180;51.438;6.978;2023-02-15T06:54:09;101377.47;;;7.61;77.11
2339;BME280;1180;51.438;6.978;2023-02-15T06:56:34;101377.59;;;7.57;76.69
2339;BME280;1180;51.438;6.978;2023-02-15T06:59:00;101380.53;;;7.43;77.19
2339;BME280;1180;51.438;6.978;2023-02-15T07:01:26;101383.59;;;7.56;77.04
2339;BME280;1180;51.438;6.978;2023-02-15T07:03:51;101379.28;;;7.58;76.82
2339;BME280;1180;51.438;6.978;2023-02-15T07:06:16;101372.09;;;7.71;76.62
2339;BME280;1180;51.438;6.978;2023-02-15T07:08:42;101376.41;;;7.69;76.19
2339;BME280;1180;51.438;6.978;2023-02-15T07:11:07;101383.91;;;7.75;76.01
2339;BME280;1180;51.438;6.978;2023-02-15T07:13:51;101384.91;;;7.69;76.03
2339;BME280;1180;51.438;6.978;2023-02-15T07:16:19;101378.00;;;7.73;75.93
2339;BME280;1180;51.438;6.978;2023-02-15T07:18:45;101375.06;;;7.85;75.31
2339;BME280;1180;51.438;6.978;2023-02-15T07:21:11;101374.66;;;7.99;74.47
2339;BME280;1180;51.438;6.978;2023-02-15T07:23:37;101374.53;;;8.04;74.34
2339;BME280;1180;51.438;6.978;2023-02-15T07:26:07;101376.94;;;8.08;74.06
2339;BME280;1180;51.438;6.978;2023-02-15T07:28:34;101368.25;;;8.14;73.79
2339;BME280;1180;51.438;6.978;2023-02-15T07:31:04;101364.69;;;8.18;73.39
2339;BME280;1180;51.438;6.978;2023-02-15T07:33:30;101367.25;;;8.18;73.32
2339;BME280;1180;51.438;6.978;2023-02-15T07:35:57;101364.69;;;8.18;72.84
2339;BME280;1180;51.438;6.978;2023-02-15T07:38:27;101352.66;;;8.22;72.80
2339;BME280;1180;51.438;6.978;2023-02-15T07:41:01;101352.50;;;8.27;72.66
2339;BME280;1180;51.438;6.978;2023-02-15T07:43:28;101340.81;;;8.19;72.62
2339;BME280;1180;51.438;6.978;2023-02-15T07:45:54;101339.28;;;8.14;72.97
2339;BME280;1180;51.438;6.978;2023-02-15T07:48:21;101341.78;;;8.15;73.09
2339;BME280;1180;51.438;6.978;2023-02-15T07:50:47;101333.09;;;8.21;73.15
2339;BME280;1180;51.438;6.978;2023-02-15T07:53:12;101337.13;;;8.28;72.48
2339;BME280;1180;51.438;6.978;2023-02-15T07:55:38;101329.50;;;8.27;72.26
2339;BME280;1180;51.438;6.978;2023-02-15T07:58:03;101330.19;;;8.32;72.44
2339;BME280;1180;51.438;6.978;2023-02-15T08:00:29;101325.97;;;8.31;72.00
2339;BME280;1180;51.438;6.978;2023-02-15T08:02:55;101323.00;;;8.43;71.77
2339;BME280;1180;51.438;6.978;2023-02-15T08:05:41;101320.38;;;8.45;71.82
2339;BME280;1180;51.438;6.978;2023-02-15T08:08:08;101318.78;;;8.42;71.78
2339;BME280;1180;51.438;6.978;2023-02-15T08:10:35;101317.78;;;8.46;71.71
2339;BME280;1180;51.438;6.978;2023-02-15T08:13:19;101316.72;;;8.53;71.41
2339;BME280;1180;51.438;6.978;2023-02-15T08:15:49;101317.47;;;8.57;71.88
2339;BME280;1180;51.438;6.978;2023-02-15T08:18:14;101311.03;;;8.71;71.24
2339;BME280;1180;51.438;6.978;2023-02-15T08:20:39;101308.25;;;8.77;71.00
2339;BME280;1180;51.438;6.978;2023-02-15T08:23:05;101309.50;;;8.90;70.73
2339;BME280;1180;51.438;6.978;2023-02-15T08:25:30;101306.88;;;8.92;70.41
2339;BME280;1180;51.438;6.978;2023-02-15T08:27:55;101309.38;;;8.95;70.18
2339;BME280;1180;51.438;6.978;2023-02-15T08:30:21;101302.00;;;9.09;69.97
2339;BME280;1180;51.438;6.978;2023-02-15T08:32:46;101312.81;;;9.18;70.14
2339;BME280;1180;51.438;6.978;2023-02-15T08:35:11;101310.19;;;9.19;69.83
2339;BME280;1180;51.438;6.978;2023-02-15T08:37:37;101303.44;;;9.17;69.62
2339;BME280;1180;51.438;6.978;2023-02-15T08:40:03;101304.97;;;9.22;69.78
2339;BME280;1180;51.438;6.978;2023-02-15T08:42:28;101309.13;;;9.25;69.67
2339;BME280;1180;51.438;6.978;2023-02-15T08:44:54;101301.00;;;9.37;69.48
2339;BME280;1180;51.438;6.978;2023-02-15T08:47:19;101294.91;;;9.40;69.48
2339;BME280;1180;51.438;6.978;2023-02-15T08:49:44;101296.38;;;9.47;69.20
2339;BME280;1180;51.438;6.978;2023-02-15T08:52:09;101298.03;;;9.48;69.17
2339;BME280;1180;51.438;6.978;2023-02-15T08:54:35;101296.47;;;9.44;68.75
2339;BME280;1180;51.438;6.978;2023-02-15T08:57:00;101293.56;;;9.53;68.58
2339;BME280;1180;51.438;6.978;2023-02-15T08:59:26;101298.50;;;9.58;68.53
2339;BME280;1180;51.438;6.978;2023-02-15T09:01:52;101299.13;;;9.65;67.99
2339;BME280;1180;51.438;6.978;2023-02-15T09:04:18;101288.81;;;9.66;67.34
2339;BME280;1180;51.438;6.978;2023-02-15T09:06:45;101293.63;;;9.74;66.32
2339;BME280;1180;51.438;6.978;2023-02-15T09:09:11;101296.75;;;9.82;65.93
2339;BME280;1180;51.438;6.978;2023-02-15T09:11:38;101284.44;;;9.91;65.26
2339;BME280;1180;51.438;6.978;2023-02-15T09:14:09;101284.84;;;10.02;65.31
2339;BME280;1180;51.438;6.978;2023-02-15T09:16:36;101283.38;;;10.17;64.95
2339;BME280;1180;51.438;6.978;2023-02-15T09:19:03;101280.22;;;10.10;64.95
2339;BME280;1180;51.438;6.978;2023-02-15T09:21:30;101280.78;;;10.19;64.14
2339;BME280;1180;51.438;6.978;2023-02-15T09:23:58;101290.47;;;10.33;64.31
2339;BME280;1180;51.438;6.978;2023-02-15T09:26:25;101295.34;;;10.39;63.91
2339;BME280;1180;51.438;6.978;2023-02-15T09:28:53;101286.88;;;10.37;63.88
2339;BME280;1180;51.438;6.978;2023-02-15T09:31:22;101286.78;;;10.40;64.14
2339;BME280;1180;51.438;6.978;2023-02-15T09:33:48;101281.50;;;10.43;62.82
2339;BME280;1180;51.438;6.978;2023-02-15T09:36:19;101283.91;;;10.48;62.88
2339;BME280;1180;51.438;6.978;2023-02-15T09:38:47;101279.44;;;10.51;63.15
2339;BME280;1180;51.438;6.978;2023-02-15T09:49:31;101289.06;;;10.67;62.14
2339;BME280;1180;51.438;6.978;2023-02-15T09:54:50;101288.53;;;10.79;62.16
2339;BME280;1180;51.438;6.978;2023-02-15T09:57:33;101288.22;;;10.87;61.71
2339;BME280;1180;51.438;6.978;2023-02-15T10:10:54;101296.00;;;11.24;59.19
2339;BME280;1180;51.438;6.978;2023-02-15T10:13:40;101283.66;;;11.32;59.34
2339;BME280;1180;51.438;6.978;2023-02-15T10:16:34;101288.22;;;11.45;59.20
2339;BME280;1180;51.438;6.978;2023-02-15T10:19:10;101291.88;;;11.58;59.35
2339;BME280;1180;51.438;6.978;2023-02-15T10:22:03;101296.75;;;11.64;59.22
2339;BME280;1180;51.438;6.978;2023-02-15T10:24:43;101298.69;;;11.59;58.58
2339;BME280;1180;51.438;6.978;2023-02-15T10:27:15;101292.88;;;11.73;58.32
2339;BME280;1180;51.438;6.978;2023-02-15T10:32:26;101279.22;;;11.90;58.33
2339;BME280;1180;51.438;6.978;2023-02-15T10:35:01;101278.75;;;12.01;57.93
2339;BME280;1180;51.438;6.978;2023-02-15T10:40:21;101277.59;;;12.24;58.01
2339;BME280;1180;51.438;6.978;2023-02-15T10:43:02;101272.97;;;12.31;57.58
2339;BME280;1180;51.438;6.978;2023-02-15T10:51:10;101271.06;;;12.52;56.59
2339;BME280;1180;51.438;6.978;2023-02-15T10:56:18;101265.13;;;12.68;56.14
2339;BME280;1180;51.438;6.978;2023-02-15T10:58:59;101261.31;;;12.75;55.43
2339;BME280;1180;51.438;6.978;2023-02-15T11:01:55;101271.66;;;12.91;55.36
2339;BME280;1180;51.438;6.978;2023-02-15T11:07:20;101259.00;;;12.86;55.28
2339;BME280;1180;51.438;6.978;2023-02-15T11:09:50;101257.78;;;12.94;54.40
2339;BME280;1180;51.438;6.978;2023-02-15T11:12:20;101258.38;;;12.99;54.41
2339;BME280;1180;51.438;6.978;2023-02-15T11:14:55;101259.28;;;12.98;54.36
2339;BME280;1180;51.438;6.978;2023-02-15T11:17:43;101260.53;;;13.07;53.46
2339;BME280;1180;51.438;6.978;2023-02-15T11:20:19;101254.22;;;13.12;53.18
2339;BME280;1180;51.438;6.978;2023-02-15T11:22:50;101254.78;;;13.18;52.83
2339;BME280;1180;51.438;6.978;2023-02-15T11:25:23;101258.13;;;13.20;53.65
2339;BME280;1180;51.438;6.978;2023-02-15T11:27:49;101260.22;;;13.29;53.10
2339;BME280;1180;51.438;6.978;2023-02-15T11:30:28;101265.38;;;13.29;53.17
2339;BME280;1180;51.438;6.978;2023-02-15T11:32:57;101258.44;;;13.29;52.66
2339;BME280;1180;51.438;6.978;2023-02-15T11:35:27;101255.66;;;13.50;52.76
2339;BME280;1180;51.438;6.978;2023-02-15T11:40:28;101255.69;;;13.65;51.91
2339;BME280;1180;51.438;6.978;2023-02-15T11:43:00;101263.94;;;13.71;52.48
2339;BME280;1180;51.438;6.978;2023-02-15T11:45:29;101259.72;;;13.85;52.28
2339;BME280;1180;51.438;6.978;2023-02-15T11:47:56;101253.09;;;13.81;51.87
2339;BME280;1180;51.438;6.978;2023-02-15T11:50:23;101244.25;;;13.85;52.15
2339;BME280;1180;51.438;6.978;2023-02-15T11:52:52;101242.75;;;13.81;52.74
2339;BME280;1180;51.438;6.978;2023-02-15T11:55:22;101240.72;;;13.71;51.88
2339;BME280;1180;51.438;6.978;2023-02-15T11:57:54;101240.94;;;13.83;51.69
2339;BME280;1180;51.438;6.978;2023-02-15T12:00:33;101237.25;;;13.87;52.06
2339;BME280;1180;51.438;6.978;2023-02-15T12:03:07;101236.91;;;13.93;51.86
2339;BME280;1180;51.438;6.978;2023-02-15T12:05:36;101233.25;;;13.97;51.62
2339;BME280;1180;51.438;6.978;2023-02-15T12:08:13;101227.34;;;14.10;51.91
2339;BME280;1180;51.438;6.978;2023-02-15T12:10:44;101230.13;;;14.21;51.38
2339;BME280;1180;51.438;6.978;2023-02-15T12:13:18;101217.22;;;14.21;51.86
2339;BME280;1180;51.438;6.978;2023-02-15T12:15:50;101221.13;;;14.28;51.55
2339;BME280;1180;51.438;6.978;2023-02-15T12:18:36;101208.41;;;14.25;51.44
2339;BME280;1180;51.438;6.978;2023-02-15T12:21:14;101212.34;;;14.31;51.38
2339;BME280;1180;51.438;6.978;2023-02-15T12:23:54;101205.34;;;14.33;50.59
2339;BME280;1180;51.438;6.978;2023-02-15T12:26:38;101206.00;;;14.37;49.88
2339;BME280;1180;51.438;6.978;2023-02-15T12:29:15;101197.13;;;14.41;50.01
2339;BME280;1180;51.438;6.978;2023-02-15T12:31:47;101192.41;;;14.33;49.93
2339;BME280;1180;51.438;6.978;2023-02-15T12:34:23;101197.22;;;14.25;49.58
2339;BME280;1180;51.438;6.978;2023-02-15T12:36:55;101185.13;;;14.40;49.32
2339;BME280;1180;51.438;6.978;2023-02-15T12:39:28;101186.88;;;14.54;48.89
2339;BME280;1180;51.438;6.978;2023-02-15T12:44:22;101180.44;;;14.76;48.34
2339;BME280;1180;51.438;6.978;2023-02-15T12:49:41;101182.06;;;14.91;49.51
2339;BME280;1180;51.438;6.978;2023-02-15T12:54:48;101176.66;;;15.09;48.22
2339;BME280;1180;51.438;6.978;2023-02-15T12:59:56;101168.69;;;15.39;51.43
2339;BME280;1180;51.438;6.978;2023-02-15T13:02:26;101168.78;;;15.51;48.83
2339;BME280;1180;51.438;6.978;2023-02-15T13:04:53;101163.22;;;15.57;48.00
2339;BME280;1180;51.438;6.978;2023-02-15T13:07:19;101170.69;;;15.62;47.61
2339;BME280;1180;51.438;6.978;2023-02-15T13:09:46;101163.44;;;15.67;47.35
2339;BME280;1180;51.438;6.978;2023-02-15T13:12:24;101165.31;;;15.65;46.91
2339;BME280;1180;51.438;6.978;2023-02-15T13:14:52;101165.22;;;15.66;47.34
2339;BME280;1180;51.438;6.978;2023-02-15T13:17:30;101152.56;;;15.62;46.48
2339;BME280;1180;51.438;6.978;2023-02-15T13:20:26;101156.81;;;15.76;47.09
2339;BME280;1180;51.438;6.978;2023-02-15T13:23:00;101150.00;;;15.87;46.71
2339;BME280;1180;51.438;6.978;2023-02-15T13:25:31;101148.25;;;15.88;46.68
2339;BME280;1180;51.438;6.978;2023-02-15T13:28:02;101143.25;;;15.85;46.58
2339;BME280;1180;51.438;6.978;2023-02-15T13:30:38;101148.78;;;15.80;44.81
2339;BME280;1180;51.438;6.978;2023-02-15T13:33:08;101150.63;;;15.65;45.47
2339;BME280;1180;51.438;6.978;2023-02-15T13:35:46;101129.94;;;15.78;46.57
2339;BME280;1180;51.438;6.978;2023-02-15T13:41:04;101123.94;;;16.03;45.60
2339;BME280;1180;51.438;6.978;2023-02-15T13:43:52;101120.41;;;16.05;45.35
2339;BME280;1180;51.438;6.978;2023-02-15T13:46:34;101116.47;;;16.12;45.44
2339;BME280;1180;51.438;6.978;2023-02-15T13:49:19;101120.06;;;16.22;43.99
2339;BME280;1180;51.438;6.978;2023-02-15T13:52:05;101109.44;;;16.01;42.71
2339;BME280;1180;51.438;6.978;2023-02-15T13:58:10;101109.59;;;16.37;43.18
2339;BME280;1180;51.438;6.978;2023-02-15T14:00:50;101111.41;;;16.48;42.81
2339;BME280;1180;51.438;6.978;2023-02-15T14:09:19;101095.16;;;16.70;41.84
2339;BME280;1180;51.438;6.978;2023-02-15T14:12:16;101097.00;;;16.81;41.73
2339;BME280;1180;51.438;6.978;2023-02-15T14:15:08;101098.25;;;16.75;42.62
2339;BME280;1180;51.438;6.978;2023-02-15T14:20:08;101100.03;;;16.74;41.62
2339;BME280;1180;51.438;6.978;2023-02-15T14:22:46;101098.81;;;16.92;41.69
2339;BME280;1180;51.438;6.978;2023-02-15T14:25:25;101102.13;;;16.94;41.70
2339;BME280;1180;51.438;6.978;2023-02-15T14:30:56;101112.88;;;17.00;40.39
2339;BME280;1180;51.438;6.978;2023-02-15T14:33:39;101112.06;;;17.00;40.75
2339;BME280;1180;51.438;6.978;2023-02-15T14:36:07;101103.22;;;16.78;41.28
2339;BME280;1180;51.438;6.978;2023-02-15T14:41:57;101101.59;;;16.88;42.46
2339;BME280;1180;51.438;6.978;2023-02-15T14:44:39;101099.31;;;16.97;42.36
2339;BME280;1180;51.438;6.978;2023-02-15T14:49:36;101096.06;;;17.06;44.17
2339;BME280;1180;51.438;6.978;2023-02-15T14:52:10;101088.06;;;17.09;42.52
2339;BME280;1180;51.438;6.978;2023-02-15T14:59:37;101090.03;;;17.06;42.65
2339;BME280;1180;51.438;6.978;2023-02-15T15:09:39;101078.16;;;16.90;45.92
2339;BME280;1180;51.438;6.978;2023-02-15T15:14:42;101077.00;;;16.94;43.33
2339;BME280;1180;51.438;6.978;2023-02-15T15:17:10;101073.09;;;16.88;42.66
2339;BME280;1180;51.438;6.978;2023-02-15T15:22:22;101076.03;;;16.84;46.53
2339;BME280;1180;51.438;6.978;2023-02-15T15:24:50;101069.22;;;16.94;52.43
2339;BME280;1180;51.438;6.978;2023-02-15T15:49:36;101085.06;;;17.02;44.81
2339;BME280;1180;51.438;6.978;2023-02-15T15:52:08;101088.31;;;16.93;45.94
2339;BME280;1180;51.438;6.978;2023-02-15T15:54:40;101085.56;;;16.83;45.72
2339;BME280;1180;51.438;6.978;2023-02-15T15:57:15;101080.59;;;16.80;45.60
2339;BME280;1180;51.438;6.978;2023-02-15T15:59:44;101083.03;;;16.70;45.71
2339;BME280;1180;51.438;6.978;2023-02-15T16:02:15;101077.16;;;16.55;45.63